sensor_id;sensor_type;location;lat;lon;timestamp;P1;durP1;ratioP1;P2;durP2;ratioP2
27612;SDS011;15036;48.094;-1.690;2023-07-09T00:02:21;5.07;;;1.73;;
27612;SDS011;15036;48.094;-1.690;2023-07-09T00:04:48;5.47;;;1.80;;
27612;SDS011;15036;48.094;-1.690;2023-07-09T00:10:14;5.15;;;1.80;;
27612;SDS011;15036;48.094;-1.690;2023-07-09T00:12:44;6.25;;;1.95;;
27612;SDS011;15036;48.094;-1.690;2023-07-09T00:15:11;9.73;;;2.30;;
27612;SDS011;15036;48.094;-1.690;2023-07-09T00:17:38;7.22;;;2.15;;
27612;SDS011;15036;48.094;-1.690;2023-07-09T00:20:05;6.03;;;1.90;;
27612;SDS011;15036;48.094;-1.690;2023-07-09T00:22:36;6.57;;;2.03;;
27612;SDS011;15036;48.094;-1.690;2023-07-09T00:25:01;5.47;;;1.85;;
27612;SDS011;15036;48.094;-1.690;2023-07-09T00:27:27;6.85;;;1.92;;
27612;SDS011;15036;48.094;-1.690;2023-07-09T00:29:54;6.13;;;2.05;;
27612;SDS011;15036;48.094;-1.690;2023-07-09T00:32:19;6.82;;;1.88;;
27612;SDS011;15036;48.094;-1.690;2023-07-09T00:34:48;6.53;;;2.05;;
27612;SDS011;15036;48.094;-1.690;2023-07-09T00:37:17;5.53;;;1.75;;
27612;SDS011;15036;48.094;-1.690;2023-07-09T00:39:50;7.40;;;1.98;;
27612;SDS011;15036;48.094;-1.690;2023-07-09T00:42:18;5.30;;;1.80;;
27612;SDS011;15036;48.094;-1.690;2023-07-09T00:44:45;5.88;;;2.03;;
27612;SDS011;15036;48.094;-1.690;2023-07-09T00:47:15;6.45;;;2.10;;
27612;SDS011;15036;48.094;-1.690;2023-07-09T00:49:48;9.05;;;2.88;;
27612;SDS011;15036;48.094;-1.690;2023-07-09T00:54:54;9.52;;;2.20;;
27612;SDS011;15036;48.094;-1.690;2023-07-09T00:57:23;6.95;;;2.30;;
27612;SDS011;15036;48.094;-1.690;2023-07-09T00:59:51;6.57;;;2.20;;
27612;SDS011;15036;48.094;-1.690;2023-07-09T01:02:21;6.57;;;2.17;;
27612;SDS011;15036;48.094;-1.690;2023-07-09T01:04:49;6.60;;;1.95;;
27612;SDS011;15036;48.094;-1.690;2023-07-09T01:07:16;8.55;;;2.10;;
27612;SDS011;15036;48.094;-1.690;2023-07-09T01:09:42;7.25;;;2.50;;
27612;SDS011;15036;48.094;-1.690;2023-07-09T01:12:08;8.18;;;2.58;;
27612;SDS011;15036;48.094;-1.690;2023-07-09T01:14:34;8.43;;;2.05;;
27612;SDS011;15036;48.094;-1.690;2023-07-09T01:17:02;10.60;;;2.38;;
27612;SDS011;15036;48.094;-1.690;2023-07-09T01:19:30;7.25;;;2.08;;
27612;SDS011;15036;48.094;-1.690;2023-07-09T01:22:08;7.65;;;2.20;;
27612;SDS011;15036;48.094;-1.690;2023-07-09T01:27:35;7.70;;;2.33;;
27612;SDS011;15036;48.094;-1.690;2023-07-09T01:30:07;7.57;;;2.58;;
27612;SDS011;15036;48.094;-1.690;2023-07-09T01:32:41;10.52;;;2.47;;
27612;SDS011;15036;48.094;-1.690;2023-07-09T01:35:11;8.48;;;2.38;;
27612;SDS011;15036;48.094;-1.690;2023-07-09T01:37:38;6.15;;;2.08;;
27612;SDS011;15036;48.094;-1.690;2023-07-09T01:40:04;13.32;;;2.50;;
27612;SDS011;15036;48.094;-1.690;2023-07-09T01:42:31;9.80;;;2.45;;
27612;SDS011;15036;48.094;-1.690;2023-07-09T01:44:57;8.77;;;2.30;;
27612;SDS011;15036;48.094;-1.690;2023-07-09T01:47:23;6.40;;;2.40;;
27612;SDS011;15036;48.094;-1.690;2023-07-09T01:49:49;5.60;;;2.45;;
27612;SDS011;15036;48.094;-1.690;2023-07-09T01:52:16;9.13;;;2.40;;
27612;SDS011;15036;48.094;-1.690;2023-07-09T01:54:44;11.30;;;2.70;;
27612;SDS011;15036;48.094;-1.690;2023-07-09T01:59:44;6.93;;;2.40;;
27612;SDS011;15036;48.094;-1.690;2023-07-09T02:02:10;6.35;;;2.22;;
27612;SDS011;15036;48.094;-1.690;2023-07-09T02:04:44;7.05;;;2.20;;
27612;SDS011;15036;48.094;-1.690;2023-07-09T02:07:20;8.77;;;2.80;;
27612;SDS011;15036;48.094;-1.690;2023-07-09T02:09:46;9.18;;;2.60;;
27612;SDS011;15036;48.094;-1.690;2023-07-09T02:12:13;7.05;;;2.42;;
27612;SDS011;15036;48.094;-1.690;2023-07-09T02:14:40;7.85;;;2.67;;
27612;SDS011;15036;48.094;-1.690;2023-07-09T02:17:06;8.82;;;2.10;;
27612;SDS011;15036;48.094;-1.690;2023-07-09T02:19:33;9.98;;;2.67;;
27612;SDS011;15036;48.094;-1.690;2023-07-09T02:21:58;10.30;;;2.28;;
27612;SDS011;15036;48.094;-1.690;2023-07-09T02:24:23;8.70;;;2.28;;
27612;SDS011;15036;48.094;-1.690;2023-07-09T02:26:57;7.28;;;2.05;;
27612;SDS011;15036;48.094;-1.690;2023-07-09T02:29:23;6.78;;;2.10;;
27612;SDS011;15036;48.094;-1.690;2023-07-09T02:31:50;9.20;;;2.50;;
27612;SDS011;15036;48.094;-1.690;2023-07-09T02:34:17;10.07;;;2.75;;
27612;SDS011;15036;48.094;-1.690;2023-07-09T02:36:43;6.63;;;2.50;;
27612;SDS011;15036;48.094;-1.690;2023-07-09T02:39:10;8.82;;;2.53;;
27612;SDS011;15036;48.094;-1.690;2023-07-09T02:41:36;6.82;;;2.30;;
27612;SDS011;15036;48.094;-1.690;2023-07-09T02:44:02;9.25;;;2.65;;
27612;SDS011;15036;48.094;-1.690;2023-07-09T02:46:28;7.28;;;2.25;;
27612;SDS011;15036;48.094;-1.690;2023-07-09T02:48:54;9.85;;;2.55;;
27612;SDS011;15036;48.094;-1.690;2023-07-09T02:51:20;7.55;;;2.47;;
27612;SDS011;15036;48.094;-1.690;2023-07-09T02:53:45;7.85;;;2.00;;
27612;SDS011;15036;48.094;-1.690;2023-07-09T02:56:11;8.20;;;2.70;;
27612;SDS011;15036;48.094;-1.690;2023-07-09T02:58:36;10.65;;;2.80;;
27612;SDS011;15036;48.094;-1.690;2023-07-09T03:01:01;7.93;;;2.65;;
27612;SDS011;15036;48.094;-1.690;2023-07-09T03:03:28;7.65;;;2.55;;
27612;SDS011;15036;48.094;-1.690;2023-07-09T03:05:54;8.63;;;2.60;;
27612;SDS011;15036;48.094;-1.690;2023-07-09T03:08:19;8.25;;;2.72;;
27612;SDS011;15036;48.094;-1.690;2023-07-09T03:10:44;6.45;;;2.10;;
27612;SDS011;15036;48.094;-1.690;2023-07-09T03:13:10;6.82;;;2.45;;
27612;SDS011;15036;48.094;-1.690;2023-07-09T03:15:35;7.88;;;2.40;;
27612;SDS011;15036;48.094;-1.690;2023-07-09T03:18:01;8.77;;;2.55;;
27612;SDS011;15036;48.094;-1.690;2023-07-09T03:20:26;8.25;;;3.05;;
27612;SDS011;15036;48.094;-1.690;2023-07-09T03:22:52;7.82;;;2.60;;
27612;SDS011;15036;48.094;-1.690;2023-07-09T03:25:17;8.48;;;2.28;;
27612;SDS011;15036;48.094;-1.690;2023-07-09T03:27:43;8.57;;;2.75;;
27612;SDS011;15036;48.094;-1.690;2023-07-09T03:30:08;11.50;;;2.78;;
27612;SDS011;15036;48.094;-1.690;2023-07-09T03:32:34;7.75;;;2.50;;
27612;SDS011;15036;48.094;-1.690;2023-07-09T03:34:59;8.15;;;2.60;;
27612;SDS011;15036;48.094;-1.690;2023-07-09T03:37:25;8.48;;;2.50;;
27612;SDS011;15036;48.094;-1.690;2023-07-09T03:39:50;7.85;;;2.28;;
27612;SDS011;15036;48.094;-1.690;2023-07-09T03:42:15;7.07;;;2.58;;
27612;SDS011;15036;48.094;-1.690;2023-07-09T03:44:41;8.23;;;2.67;;
27612;SDS011;15036;48.094;-1.690;2023-07-09T03:47:07;9.68;;;2.85;;
27612;SDS011;15036;48.094;-1.690;2023-07-09T03:49:32;10.63;;;2.72;;
27612;SDS011;15036;48.094;-1.690;2023-07-09T03:51:58;9.95;;;2.85;;
27612;SDS011;15036;48.094;-1.690;2023-07-09T03:54:23;8.48;;;2.83;;
27612;SDS011;15036;48.094;-1.690;2023-07-09T03:56:49;7.70;;;2.40;;
27612;SDS011;15036;48.094;-1.690;2023-07-09T03:59:14;9.18;;;2.90;;
27612;SDS011;15036;48.094;-1.690;2023-07-09T04:01:40;10.68;;;3.05;;
27612;SDS011;15036;48.094;-1.690;2023-07-09T04:04:11;9.48;;;3.17;;
27612;SDS011;15036;48.094;-1.690;2023-07-09T04:06:39;8.68;;;3.42;;
27612;SDS011;15036;48.094;-1.690;2023-07-09T04:09:04;7.65;;;3.20;;
27612;SDS011;15036;48.094;-1.690;2023-07-09T04:11:30;9.93;;;3.15;;
27612;SDS011;15036;48.094;-1.690;2023-07-09T04:13:55;7.07;;;3.13;;
27612;SDS011;15036;48.094;-1.690;2023-07-09T04:16:20;8.68;;;3.30;;
27612;SDS011;15036;48.094;-1.690;2023-07-09T04:18:46;8.23;;;3.38;;
27612;SDS011;15036;48.094;-1.690;2023-07-09T04:21:11;9.85;;;3.38;;
27612;SDS011;15036;48.094;-1.690;2023-07-09T04:23:37;9.68;;;3.58;;
27612;SDS011;15036;48.094;-1.690;2023-07-09T04:26:03;7.88;;;3.22;;
27612;SDS011;15036;48.094;-1.690;2023-07-09T04:28:29;8.73;;;3.50;;
27612;SDS011;15036;48.094;-1.690;2023-07-09T04:30:56;8.38;;;3.30;;
27612;SDS011;15036;48.094;-1.690;2023-07-09T04:33:21;7.00;;;3.05;;
27612;SDS011;15036;48.094;-1.690;2023-07-09T04:35:47;7.20;;;2.80;;
27612;SDS011;15036;48.094;-1.690;2023-07-09T04:38:13;8.95;;;3.38;;
27612;SDS011;15036;48.094;-1.690;2023-07-09T04:40:39;7.18;;;2.95;;
27612;SDS011;15036;48.094;-1.690;2023-07-09T04:43:05;7.78;;;2.78;;
27612;SDS011;15036;48.094;-1.690;2023-07-09T04:45:30;9.20;;;2.90;;
27612;SDS011;15036;48.094;-1.690;2023-07-09T04:47:56;6.85;;;2.50;;
27612;SDS011;15036;48.094;-1.690;2023-07-09T04:50:21;11.07;;;3.22;;
27612;SDS011;15036;48.094;-1.690;2023-07-09T04:52:46;7.63;;;2.83;;
27612;SDS011;15036;48.094;-1.690;2023-07-09T04:55:12;7.07;;;2.55;;
27612;SDS011;15036;48.094;-1.690;2023-07-09T04:57:37;8.13;;;2.80;;
27612;SDS011;15036;48.094;-1.690;2023-07-09T05:00:03;8.32;;;2.90;;
27612;SDS011;15036;48.094;-1.690;2023-07-09T05:02:30;7.60;;;2.97;;
27612;SDS011;15036;48.094;-1.690;2023-07-09T05:04:56;9.48;;;3.00;;
27612;SDS011;15036;48.094;-1.690;2023-07-09T05:07:22;7.82;;;2.92;;
27612;SDS011;15036;48.094;-1.690;2023-07-09T05:09:47;7.22;;;2.60;;
27612;SDS011;15036;48.094;-1.690;2023-07-09T05:12:13;8.48;;;2.92;;
27612;SDS011;15036;48.094;-1.690;2023-07-09T05:14:38;7.93;;;2.88;;
27612;SDS011;15036;48.094;-1.690;2023-07-09T05:17:04;8.90;;;3.15;;
27612;SDS011;15036;48.094;-1.690;2023-07-09T05:19:30;8.60;;;2.50;;
27612;SDS011;15036;48.094;-1.690;2023-07-09T05:21:56;8.25;;;2.55;;
27612;SDS011;15036;48.094;-1.690;2023-07-09T05:24:22;8.98;;;2.85;;
27612;SDS011;15036;48.094;-1.690;2023-07-09T05:26:47;6.88;;;2.58;;
27612;SDS011;15036;48.094;-1.690;2023-07-09T05:29:12;8.10;;;2.40;;
27612;SDS011;15036;48.094;-1.690;2023-07-09T05:31:38;6.65;;;2.22;;
27612;SDS011;15036;48.094;-1.690;2023-07-09T05:34:03;7.18;;;2.58;;
27612;SDS011;15036;48.094;-1.690;2023-07-09T05:36:29;7.15;;;2.50;;
27612;SDS011;15036;48.094;-1.690;2023-07-09T05:38:55;7.28;;;2.67;;
27612;SDS011;15036;48.094;-1.690;2023-07-09T05:41:21;7.72;;;2.60;;
27612;SDS011;15036;48.094;-1.690;2023-07-09T05:43:46;8.93;;;2.75;;
27612;SDS011;15036;48.094;-1.690;2023-07-09T05:46:12;7.43;;;2.58;;
27612;SDS011;15036;48.094;-1.690;2023-07-09T05:48:38;9.23;;;2.53;;
27612;SDS011;15036;48.094;-1.690;2023-07-09T05:51:04;8.10;;;2.50;;
27612;SDS011;15036;48.094;-1.690;2023-07-09T05:53:29;6.43;;;2.30;;
27612;SDS011;15036;48.094;-1.690;2023-07-09T05:55:57;6.40;;;2.45;;
27612;SDS011;15036;48.094;-1.690;2023-07-09T05:58:23;6.43;;;2.33;;
27612;SDS011;15036;48.094;-1.690;2023-07-09T06:00:52;7.40;;;2.67;;
27612;SDS011;15036;48.094;-1.690;2023-07-09T06:03:19;7.88;;;2.50;;
27612;SDS011;15036;48.094;-1.690;2023-07-09T06:05:46;9.20;;;2.30;;
27612;SDS011;15036;48.094;-1.690;2023-07-09T06:08:13;9.20;;;2.80;;
27612;SDS011;15036;48.094;-1.690;2023-07-09T06:10:38;8.13;;;2.47;;
27612;SDS011;15036;48.094;-1.690;2023-07-09T06:13:08;9.48;;;2.80;;
27612;SDS011;15036;48.094;-1.690;2023-07-09T06:15:34;6.57;;;2.30;;
27612;SDS011;15036;48.094;-1.690;2023-07-09T06:17:59;9.48;;;2.40;;
27612;SDS011;15036;48.094;-1.690;2023-07-09T06:20:25;8.52;;;2.22;;
27612;SDS011;15036;48.094;-1.690;2023-07-09T06:22:50;8.73;;;2.75;;
27612;SDS011;15036;48.094;-1.690;2023-07-09T06:25:15;7.45;;;2.90;;
27612;SDS011;15036;48.094;-1.690;2023-07-09T06:27:41;9.18;;;2.67;;
27612;SDS011;15036;48.094;-1.690;2023-07-09T06:30:06;8.30;;;2.28;;
27612;SDS011;15036;48.094;-1.690;2023-07-09T06:32:32;9.63;;;2.38;;
27612;SDS011;15036;48.094;-1.690;2023-07-09T06:34:57;8.02;;;2.63;;
27612;SDS011;15036;48.094;-1.690;2023-07-09T06:37:23;9.55;;;2.33;;
27612;SDS011;15036;48.094;-1.690;2023-07-09T06:39:48;8.95;;;2.60;;
27612;SDS011;15036;48.094;-1.690;2023-07-09T06:42:14;5.60;;;2.05;;
27612;SDS011;15036;48.094;-1.690;2023-07-09T06:44:39;8.38;;;2.70;;
27612;SDS011;15036;48.094;-1.690;2023-07-09T06:47:05;8.70;;;2.42;;
27612;SDS011;15036;48.094;-1.690;2023-07-09T06:49:30;8.73;;;2.78;;
27612;SDS011;15036;48.094;-1.690;2023-07-09T06:51:56;5.20;;;2.05;;
27612;SDS011;15036;48.094;-1.690;2023-07-09T06:54:21;9.38;;;2.60;;
27612;SDS011;15036;48.094;-1.690;2023-07-09T06:56:46;7.05;;;2.58;;
27612;SDS011;15036;48.094;-1.690;2023-07-09T06:59:12;8.43;;;2.83;;
27612;SDS011;15036;48.094;-1.690;2023-07-09T07:01:37;8.88;;;3.10;;
27612;SDS011;15036;48.094;-1.690;2023-07-09T07:04:03;7.80;;;3.30;;
27612;SDS011;15036;48.094;-1.690;2023-07-09T07:06:28;11.07;;;3.53;;
27612;SDS011;15036;48.094;-1.690;2023-07-09T07:08:53;8.50;;;3.58;;
27612;SDS011;15036;48.094;-1.690;2023-07-09T07:11:19;8.52;;;3.95;;
27612;SDS011;15036;48.094;-1.690;2023-07-09T07:13:44;8.98;;;4.00;;
27612;SDS011;15036;48.094;-1.690;2023-07-09T07:16:11;10.40;;;4.63;;
27612;SDS011;15036;48.094;-1.690;2023-07-09T07:18:37;9.90;;;4.97;;
27612;SDS011;15036;48.094;-1.690;2023-07-09T07:21:03;9.73;;;4.70;;
27612;SDS011;15036;48.094;-1.690;2023-07-09T07:23:29;13.05;;;5.43;;
27612;SDS011;15036;48.094;-1.690;2023-07-09T07:25:55;10.63;;;5.45;;
27612;SDS011;15036;48.094;-1.690;2023-07-09T07:28:21;8.77;;;4.60;;
27612;SDS011;15036;48.094;-1.690;2023-07-09T07:30:47;11.70;;;5.30;;
27612;SDS011;15036;48.094;-1.690;2023-07-09T07:33:22;11.63;;;5.30;;
27612;SDS011;15036;48.094;-1.690;2023-07-09T07:35:48;12.20;;;5.40;;
27612;SDS011;15036;48.094;-1.690;2023-07-09T07:38:13;8.65;;;3.92;;
27612;SDS011;15036;48.094;-1.690;2023-07-09T07:40:38;7.00;;;3.35;;
27612;SDS011;15036;48.094;-1.690;2023-07-09T07:43:04;10.48;;;3.80;;
27612;SDS011;15036;48.094;-1.690;2023-07-09T07:45:29;7.65;;;3.28;;
27612;SDS011;15036;48.094;-1.690;2023-07-09T07:47:54;7.85;;;3.20;;
27612;SDS011;15036;48.094;-1.690;2023-07-09T07:50:20;10.82;;;3.72;;
27612;SDS011;15036;48.094;-1.690;2023-07-09T07:52:45;9.30;;;3.25;;
27612;SDS011;15036;48.094;-1.690;2023-07-09T07:55:10;9.25;;;3.88;;
27612;SDS011;15036;48.094;-1.690;2023-07-09T07:57:36;11.45;;;3.85;;
27612;SDS011;15036;48.094;-1.690;2023-07-09T08:00:01;9.63;;;3.83;;
27612;SDS011;15036;48.094;-1.690;2023-07-09T08:02:28;7.25;;;3.45;;
27612;SDS011;15036;48.094;-1.690;2023-07-09T08:04:53;11.38;;;4.13;;
27612;SDS011;15036;48.094;-1.690;2023-07-09T08:07:19;13.23;;;3.83;;
27612;SDS011;15036;48.094;-1.690;2023-07-09T08:09:45;8.90;;;3.53;;
27612;SDS011;15036;48.094;-1.690;2023-07-09T08:12:11;9.25;;;3.30;;
27612;SDS011;15036;48.094;-1.690;2023-07-09T08:14:38;8.45;;;3.20;;
27612;SDS011;15036;48.094;-1.690;2023-07-09T08:17:05;5.97;;;2.45;;
27612;SDS011;15036;48.094;-1.690;2023-07-09T08:19:31;8.02;;;2.58;;
27612;SDS011;15036;48.094;-1.690;2023-07-09T08:21:56;8.98;;;2.75;;
27612;SDS011;15036;48.094;-1.690;2023-07-09T08:24:22;8.82;;;2.40;;
27612;SDS011;15036;48.094;-1.690;2023-07-09T08:26:47;7.75;;;2.45;;
27612;SDS011;15036;48.094;-1.690;2023-07-09T08:29:13;10.48;;;2.60;;
27612;SDS011;15036;48.094;-1.690;2023-07-09T08:31:38;6.75;;;2.38;;
27612;SDS011;15036;48.094;-1.690;2023-07-09T08:34:04;6.45;;;2.38;;
27612;SDS011;15036;48.094;-1.690;2023-07-09T08:36:31;7.10;;;2.33;;
27612;SDS011;15036;48.094;-1.690;2023-07-09T08:38:56;8.32;;;2.65;;
27612;SDS011;15036;48.094;-1.690;2023-07-09T08:41:27;8.88;;;2.92;;
27612;SDS011;15036;48.094;-1.690;2023-07-09T08:49:12;6.88;;;2.30;;
27612;SDS011;15036;48.094;-1.690;2023-07-09T08:51:43;7.43;;;2.60;;
27612;SDS011;15036;48.094;-1.690;2023-07-09T08:54:13;6.20;;;2.42;;
27612;SDS011;15036;48.094;-1.690;2023-07-09T08:56:54;8.27;;;2.50;;
27612;SDS011;15036;48.094;-1.690;2023-07-09T08:59:24;8.82;;;2.80;;
27612;SDS011;15036;48.094;-1.690;2023-07-09T09:01:52;8.80;;;2.83;;
27612;SDS011;15036;48.094;-1.690;2023-07-09T09:04:29;9.43;;;2.58;;
27612;SDS011;15036;48.094;-1.690;2023-07-09T09:09:56;7.68;;;2.22;;
27612;SDS011;15036;48.094;-1.690;2023-07-09T09:12:26;7.75;;;2.22;;
27612;SDS011;15036;48.094;-1.690;2023-07-09T09:14:58;6.82;;;2.22;;
27612;SDS011;15036;48.094;-1.690;2023-07-09T09:17:38;6.43;;;2.00;;
27612;SDS011;15036;48.094;-1.690;2023-07-09T09:20:07;6.38;;;2.47;;
27612;SDS011;15036;48.094;-1.690;2023-07-09T09:22:40;7.63;;;2.40;;
27612;SDS011;15036;48.094;-1.690;2023-07-09T09:25:28;6.75;;;2.33;;
27612;SDS011;15036;48.094;-1.690;2023-07-09T09:27:55;6.45;;;2.20;;
27612;SDS011;15036;48.094;-1.690;2023-07-09T09:30:22;7.22;;;2.10;;
27612;SDS011;15036;48.094;-1.690;2023-07-09T09:33:08;9.75;;;2.72;;
27612;SDS011;15036;48.094;-1.690;2023-07-09T09:35:37;8.70;;;2.45;;
27612;SDS011;15036;48.094;-1.690;2023-07-09T09:38:09;5.47;;;2.42;;
27612;SDS011;15036;48.094;-1.690;2023-07-09T09:40:36;7.38;;;2.22;;
27612;SDS011;15036;48.094;-1.690;2023-07-09T09:43:02;7.25;;;2.42;;
27612;SDS011;15036;48.094;-1.690;2023-07-09T09:45:37;6.35;;;2.33;;
27612;SDS011;15036;48.094;-1.690;2023-07-09T09:48:13;7.45;;;2.33;;
27612;SDS011;15036;48.094;-1.690;2023-07-09T09:50:42;9.15;;;2.50;;
27612;SDS011;15036;48.094;-1.690;2023-07-09T09:53:08;7.13;;;2.33;;
27612;SDS011;15036;48.094;-1.690;2023-07-09T09:55:42;7.43;;;2.70;;
27612;SDS011;15036;48.094;-1.690;2023-07-09T09:58:10;7.00;;;2.72;;
27612;SDS011;15036;48.094;-1.690;2023-07-09T10:00:38;7.18;;;2.45;;
27612;SDS011;15036;48.094;-1.690;2023-07-09T10:03:04;6.80;;;2.35;;
27612;SDS011;15036;48.094;-1.690;2023-07-09T10:05:38;7.25;;;2.40;;
27612;SDS011;15036;48.094;-1.690;2023-07-09T10:08:12;8.70;;;2.63;;
27612;SDS011;15036;48.094;-1.690;2023-07-09T10:10:50;9.20;;;2.50;;
27612;SDS011;15036;48.094;-1.690;2023-07-09T10:13:26;6.82;;;2.13;;
27612;SDS011;15036;48.094;-1.690;2023-07-09T10:16:01;9.15;;;2.88;;
27612;SDS011;15036;48.094;-1.690;2023-07-09T10:18:48;5.93;;;2.22;;
27612;SDS011;15036;48.094;-1.690;2023-07-09T10:32:29;5.13;;;2.20;;
27612;SDS011;15036;48.094;-1.690;2023-07-09T10:35:05;5.57;;;2.30;;
27612;SDS011;15036;48.094;-1.690;2023-07-09T10:37:43;5.95;;;2.25;;
27612;SDS011;15036;48.094;-1.690;2023-07-09T10:40:11;6.63;;;2.20;;
27612;SDS011;15036;48.094;-1.690;2023-07-09T10:45:10;7.82;;;2.45;;
27612;SDS011;15036;48.094;-1.690;2023-07-09T10:47:40;6.13;;;2.00;;
27612;SDS011;15036;48.094;-1.690;2023-07-09T10:50:12;6.03;;;2.17;;
27612;SDS011;15036;48.094;-1.690;2023-07-09T10:52:46;8.88;;;2.55;;
27612;SDS011;15036;48.094;-1.690;2023-07-09T10:57:51;6.10;;;2.30;;
27612;SDS011;15036;48.094;-1.690;2023-07-09T11:00:38;6.13;;;2.20;;
27612;SDS011;15036;48.094;-1.690;2023-07-09T11:03:09;5.32;;;1.90;;
27612;SDS011;15036;48.094;-1.690;2023-07-09T11:05:40;5.18;;;2.03;;
27612;SDS011;15036;48.094;-1.690;2023-07-09T11:11:04;3.58;;;1.70;;
27612;SDS011;15036;48.094;-1.690;2023-07-09T11:14:10;6.28;;;1.95;;
27612;SDS011;15036;48.094;-1.690;2023-07-09T11:16:37;5.50;;;2.00;;
27612;SDS011;15036;48.094;-1.690;2023-07-09T11:19:11;5.13;;;2.03;;
27612;SDS011;15036;48.094;-1.690;2023-07-09T11:29:47;7.13;;;2.33;;
27612;SDS011;15036;48.094;-1.690;2023-07-09T11:32:21;6.93;;;2.10;;
27612;SDS011;15036;48.094;-1.690;2023-07-09T11:34:47;8.02;;;3.00;;
27612;SDS011;15036;48.094;-1.690;2023-07-09T11:37:13;6.13;;;2.40;;
27612;SDS011;15036;48.094;-1.690;2023-07-09T11:44:53;5.60;;;2.40;;
27612;SDS011;15036;48.094;-1.690;2023-07-09T11:58:01;9.18;;;4.20;;
27612;SDS011;15036;48.094;-1.690;2023-07-09T12:00:30;9.05;;;4.55;;
27612;SDS011;15036;48.094;-1.690;2023-07-09T12:03:14;6.85;;;3.20;;
27612;SDS011;15036;48.094;-1.690;2023-07-09T12:05:51;6.17;;;3.10;;
27612;SDS011;15036;48.094;-1.690;2023-07-09T12:08:19;7.30;;;2.70;;
27612;SDS011;15036;48.094;-1.690;2023-07-09T12:10:52;6.10;;;2.40;;
27612;SDS011;15036;48.094;-1.690;2023-07-09T12:13:17;11.98;;;6.43;;
27612;SDS011;15036;48.094;-1.690;2023-07-09T12:15:43;6.60;;;3.10;;
27612;SDS011;15036;48.094;-1.690;2023-07-09T12:18:10;9.60;;;3.53;;
27612;SDS011;15036;48.094;-1.690;2023-07-09T12:20:37;5.38;;;2.13;;
27612;SDS011;15036;48.094;-1.690;2023-07-09T12:23:09;6.10;;;2.00;;
27612;SDS011;15036;48.094;-1.690;2023-07-09T12:25:46;4.72;;;1.80;;
27612;SDS011;15036;48.094;-1.690;2023-07-09T12:28:14;6.20;;;1.92;;
27612;SDS011;15036;48.094;-1.690;2023-07-09T12:30:40;5.50;;;2.10;;
27612;SDS011;15036;48.094;-1.690;2023-07-09T12:33:07;4.55;;;1.50;;
27612;SDS011;15036;48.094;-1.690;2023-07-09T12:35:33;4.50;;;1.60;;
27612;SDS011;15036;48.094;-1.690;2023-07-09T12:37:58;4.78;;;1.60;;
27612;SDS011;15036;48.094;-1.690;2023-07-09T12:40:26;4.63;;;1.60;;
27612;SDS011;15036;48.094;-1.690;2023-07-09T12:42:54;5.88;;;1.67;;
27612;SDS011;15036;48.094;-1.690;2023-07-09T12:45:22;5.03;;;1.65;;
27612;SDS011;15036;48.094;-1.690;2023-07-09T12:47:48;4.70;;;1.50;;
27612;SDS011;15036;48.094;-1.690;2023-07-09T12:50:19;3.88;;;1.48;;
27612;SDS011;15036;48.094;-1.690;2023-07-09T12:52:52;3.92;;;1.58;;
27612;SDS011;15036;48.094;-1.690;2023-07-09T12:55:25;4.43;;;1.73;;
27612;SDS011;15036;48.094;-1.690;2023-07-09T12:57:51;5.88;;;2.13;;
27612;SDS011;15036;48.094;-1.690;2023-07-09T13:00:20;5.60;;;1.50;;
27612;SDS011;15036;48.094;-1.690;2023-07-09T13:02:50;6.35;;;1.80;;
27612;SDS011;15036;48.094;-1.690;2023-07-09T13:05:20;6.50;;;1.77;;
27612;SDS011;15036;48.094;-1.690;2023-07-09T13:08:00;4.95;;;1.60;;
27612;SDS011;15036;48.094;-1.690;2023-07-09T13:10:27;4.50;;;1.90;;
27612;SDS011;15036;48.094;-1.690;2023-07-09T13:12:56;4.60;;;1.63;;
27612;SDS011;15036;48.094;-1.690;2023-07-09T13:17:56;4.45;;;1.67;;
27612;SDS011;15036;48.094;-1.690;2023-07-09T13:20:23;7.68;;;2.20;;
27612;SDS011;15036;48.094;-1.690;2023-07-09T13:22:49;4.93;;;1.80;;
27612;SDS011;15036;48.094;-1.690;2023-07-09T13:25:14;5.35;;;1.45;;
27612;SDS011;15036;48.094;-1.690;2023-07-09T13:27:39;6.95;;;1.77;;
27612;SDS011;15036;48.094;-1.690;2023-07-09T13:30:05;5.15;;;1.90;;
27612;SDS011;15036;48.094;-1.690;2023-07-09T13:32:31;5.18;;;1.70;;
27612;SDS011;15036;48.094;-1.690;2023-07-09T13:34:56;5.20;;;1.77;;
27612;SDS011;15036;48.094;-1.690;2023-07-09T13:37:22;5.70;;;1.30;;
27612;SDS011;15036;48.094;-1.690;2023-07-09T13:39:48;5.95;;;1.80;;
27612;SDS011;15036;48.094;-1.690;2023-07-09T13:42:15;5.35;;;2.00;;
27612;SDS011;15036;48.094;-1.690;2023-07-09T13:44:43;5.22;;;1.90;;
27612;SDS011;15036;48.094;-1.690;2023-07-09T13:47:17;6.40;;;2.53;;
27612;SDS011;15036;48.094;-1.690;2023-07-09T13:49:44;5.80;;;2.00;;
27612;SDS011;15036;48.094;-1.690;2023-07-09T13:52:14;4.32;;;1.85;;
27612;SDS011;15036;48.094;-1.690;2023-07-09T13:54:42;5.32;;;1.50;;
27612;SDS011;15036;48.094;-1.690;2023-07-09T13:57:13;5.82;;;1.67;;
27612;SDS011;15036;48.094;-1.690;2023-07-09T13:59:40;3.28;;;1.50;;
27612;SDS011;15036;48.094;-1.690;2023-07-09T14:02:16;4.95;;;1.98;;
27612;SDS011;15036;48.094;-1.690;2023-07-09T14:04:59;6.55;;;2.05;;
27612;SDS011;15036;48.094;-1.690;2023-07-09T14:07:33;5.85;;;1.60;;
27612;SDS011;15036;48.094;-1.690;2023-07-09T14:10:01;8.55;;;2.08;;
27612;SDS011;15036;48.094;-1.690;2023-07-09T14:12:28;6.00;;;1.73;;
27612;SDS011;15036;48.094;-1.690;2023-07-09T14:14:59;5.15;;;1.58;;
27612;SDS011;15036;48.094;-1.690;2023-07-09T14:17:26;5.38;;;1.77;;
27612;SDS011;15036;48.094;-1.690;2023-07-09T14:19:52;5.68;;;1.90;;
27612;SDS011;15036;48.094;-1.690;2023-07-09T14:24:52;4.80;;;1.83;;
27612;SDS011;15036;48.094;-1.690;2023-07-09T14:27:18;6.20;;;1.80;;
27612;SDS011;15036;48.094;-1.690;2023-07-09T14:29:44;6.03;;;1.63;;
27612;SDS011;15036;48.094;-1.690;2023-07-09T14:34:57;5.18;;;1.75;;
27612;SDS011;15036;48.094;-1.690;2023-07-09T14:37:23;4.10;;;1.52;;
27612;SDS011;15036;48.094;-1.690;2023-07-09T14:39:48;6.68;;;1.77;;
27612;SDS011;15036;48.094;-1.690;2023-07-09T14:42:14;5.18;;;1.50;;
27612;SDS011;15036;48.094;-1.690;2023-07-09T14:44:41;5.25;;;1.55;;
27612;SDS011;15036;48.094;-1.690;2023-07-09T14:47:09;4.38;;;1.50;;
27612;SDS011;15036;48.094;-1.690;2023-07-09T14:49:39;4.28;;;1.50;;
27612;SDS011;15036;48.094;-1.690;2023-07-09T14:52:05;4.97;;;1.55;;
27612;SDS011;15036;48.094;-1.690;2023-07-09T14:54:37;5.80;;;1.80;;
27612;SDS011;15036;48.094;-1.690;2023-07-09T14:57:03;6.32;;;1.80;;
27612;SDS011;15036;48.094;-1.690;2023-07-09T14:59:33;5.40;;;1.55;;
27612;SDS011;15036;48.094;-1.690;2023-07-09T15:01:59;6.65;;;1.80;;
27612;SDS011;15036;48.094;-1.690;2023-07-09T15:06:50;7.55;;;2.00;;
27612;SDS011;15036;48.094;-1.690;2023-07-09T15:09:22;6.85;;;1.98;;
27612;SDS011;15036;48.094;-1.690;2023-07-09T15:11:50;5.53;;;1.80;;
27612;SDS011;15036;48.094;-1.690;2023-07-09T15:14:17;4.45;;;1.50;;
27612;SDS011;15036;48.094;-1.690;2023-07-09T15:16:43;5.50;;;1.85;;
27612;SDS011;15036;48.094;-1.690;2023-07-09T15:19:18;7.63;;;1.60;;
27612;SDS011;15036;48.094;-1.690;2023-07-09T15:21:45;4.07;;;1.50;;
27612;SDS011;15036;48.094;-1.690;2023-07-09T15:24:14;4.78;;;1.50;;
27612;SDS011;15036;48.094;-1.690;2023-07-09T15:26:48;5.25;;;1.70;;
27612;SDS011;15036;48.094;-1.690;2023-07-09T15:29:17;7.40;;;2.17;;
27612;SDS011;15036;48.094;-1.690;2023-07-09T15:31:42;5.22;;;1.60;;
27612;SDS011;15036;48.094;-1.690;2023-07-09T15:34:08;7.82;;;1.85;;
27612;SDS011;15036;48.094;-1.690;2023-07-09T15:36:34;5.30;;;1.60;;
27612;SDS011;15036;48.094;-1.690;2023-07-09T15:38:59;5.57;;;1.55;;
27612;SDS011;15036;48.094;-1.690;2023-07-09T15:41:25;4.30;;;1.50;;
27612;SDS011;15036;48.094;-1.690;2023-07-09T15:43:50;4.38;;;1.60;;
27612;SDS011;15036;48.094;-1.690;2023-07-09T15:46:16;4.18;;;1.52;;
27612;SDS011;15036;48.094;-1.690;2023-07-09T15:48:44;6.43;;;1.90;;
27612;SDS011;15036;48.094;-1.690;2023-07-09T15:51:10;5.30;;;1.70;;